Wind From: 11-12-2017 07:30 Until: 12-12-2017 06:00 warning for: Wind Level: Orange info button

Power and phone distribution networks may be disrupted for relatively long periods., Roofs and chimneys can be damaged. , Tree branches may break. , Vehicles can be deported. , Traffic may be disrupted, particularly on secondary roads in forest areas. Limit your trips. , Limit your speed in highway driving, especially if you drive a vehicle or hitch sensitive to wind. , Do not go for walks in forests or along the coast., In town, be vigilant against possible falling objects., Do not work on roofs and do not touch any electrical line fallen on the ground., Store or secure sensitive objects to wind or likely to be damaged., Always install power generators outside buildings. 


Meteo18 Weather Cam more information Meteo18 Weather Cam


Thunder radar more information blitzortung!


Rain radar more information rain snow radar


Visit our other weather sites:

Template documentation
and downloads

And another site



Weather Underground History page Text

Daily Summary for February 6, 2017 Units:  English    Metric   Both
« Previous Day
Next Day »
Daily Weekly Monthly Yearly Custom
  High: Low: Average:
Temperature: 46.4 °F 38.8 °F 41.4 °F
Dew Point: 40.3 °F 36.5 °F 37.9 °F
Humidity: 93 % 76 % 87 %
Wind Speed: 16 mph 0 mph 3.6 mph
Wind Gust: 22 mph - -
Wind:- - WNW
Pressure: 30.2 in 29.8 in -
Precipitation: 0 in    
Historical Graphs
 
 
Tabular Data for February 6, 2017
Time Temperature Dew Point Pressure Wind Wind Speed Wind Gust Humidity Rainfall Rate (Hourly)
00:02 42.4 °F 39.7 °F 29.8 in WNW 9 mph 18 mph 90 % 0 in
00:07 42.4 °F 39.7 °F 29.8 in NW 6 mph 17 mph 90 % 0 in
00:12 42.4 °F 39.7 °F 29.8 in NW 8 mph 22 mph 90 % 0 in
00:17 42.4 °F 39.9 °F 29.8 in WNW 13 mph 22 mph 91 % 0 in
00:22 42.4 °F 39.7 °F 29.8 in West 4 mph 19 mph 90 % 0 in
00:32 42.4 °F 39.7 °F 29.8 in WNW 11 mph 17 mph 90 % 0 in
00:42 42.4 °F 39.9 °F 29.8 in NW 3 mph 15 mph 91 % 0 in
00:47 42.4 °F 39.9 °F 29.8 in WNW 3 mph 12 mph 91 % 0 in
00:52 42.4 °F 39.9 °F 29.9 in WNW 3 mph 12 mph 91 % 0 in
00:57 42.4 °F 39.9 °F 29.9 in NW 8 mph 12 mph 91 % 0 in
01:02 42.4 °F 39.7 °F 29.9 in WNW 6 mph 12 mph 90 % 0 in
01:07 42.3 °F 39.6 °F 29.9 in NW 7 mph 15 mph 90 % 0 in
01:12 42.1 °F 39 °F 29.9 in NNW 9 mph 16 mph 89 % 0 in
01:17 42.1 °F 39 °F 29.9 in NNW 6 mph 17 mph 89 % 0 in
01:22 41.9 °F 38.8 °F 29.9 in WNW 6 mph 17 mph 89 % 0 in
01:27 41.7 °F 39 °F 29.9 in NW 3 mph 17 mph 90 % 0 in
01:32 41.7 °F 39 °F 29.9 in WNW 3 mph 13 mph 90 % 0 in
01:37 41.4 °F 39 °F 29.9 in WNW 6 mph 13 mph 91 % 0 in
01:42 41.2 °F 38.8 °F 29.9 in WNW 5 mph 13 mph 91 % 0 in
01:47 41 °F 38.8 °F 29.9 in WNW 5 mph 13 mph 92 % 0 in
01:52 40.8 °F 38.7 °F 29.9 in WNW 1 mph 11 mph 92 % 0 in
01:57 40.6 °F 38.5 °F 29.9 in NNW 4 mph 12 mph 92 % 0 in
02:02 40.6 °F 38.8 °F 29.9 in WNW 3 mph 12 mph 93 % 0 in
02:07 40.5 °F 38.7 °F 29.9 in NW 4 mph 10 mph 93 % 0 in
02:12 40.3 °F 38.5 °F 29.9 in North 10 mph 11 mph 93 % 0 in
02:17 39.9 °F 37.8 °F 29.9 in WNW 2 mph 11 mph 92 % 0 in
02:22 39.9 °F 37.8 °F 29.9 in WNW 2 mph 11 mph 92 % 0 in
02:27 39.9 °F 38.1 °F 29.9 in WNW 5 mph 11 mph 93 % 0 in
02:32 39.7 °F 37.9 °F 29.9 in NW 1 mph 11 mph 93 % 0 in
02:37 39.7 °F 37.9 °F 29.9 in WNW 7 mph 11 mph 93 % 0 in
02:42 39.7 °F 37.9 °F 29.9 in West 13 mph 13 mph 93 % 0 in
02:47 39.6 °F 37.8 °F 29.9 in WNW 7 mph 14 mph 93 % 0 in
02:52 39.6 °F 37.8 °F 29.9 in WNW 5 mph 14 mph 93 % 0 in
02:57 39.6 °F 37.8 °F 29.9 in WNW 4 mph 15 mph 93 % 0 in
03:02 39.7 °F 37.6 °F 29.9 in West 6 mph 19 mph 92 % 0 in
03:07 39.7 °F 37.6 °F 29.9 in NW 4 mph 19 mph 92 % 0 in
03:12 39.7 °F 37.6 °F 29.9 in WNW 11 mph 19 mph 92 % 0 in
03:17 39.7 °F 37.6 °F 29.9 in WNW 16 mph 19 mph 92 % 0 in
03:22 39.6 °F 37.4 °F 29.9 in West 9 mph 19 mph 92 % 0 in
03:32 39.6 °F 37.8 °F 29.9 in WNW 4 mph 18 mph 93 % 0 in
03:37 39.4 °F 37.6 °F 29.9 in NW 15 mph 19 mph 93 % 0 in
03:42 39.4 °F 37.2 °F 29.9 in West 9 mph 19 mph 92 % 0 in
03:47 39.4 °F 37.6 °F 29.9 in WNW 12 mph 19 mph 93 % 0 in
03:52 39.4 °F 37.6 °F 30 in NW 3 mph 19 mph 93 % 0 in
03:57 39.4 °F 37.6 °F 30 in NW 7 mph 18 mph 93 % 0 in
04:02 39.6 °F 37.4 °F 30 in WNW 8 mph 18 mph 92 % 0 in
04:07 39.6 °F 37.4 °F 30 in WNW 10 mph 16 mph 92 % 0 in
04:12 39.6 °F 37.4 °F 30 in NW 4 mph 20 mph 92 % 0 in
04:17 39.7 °F 37.4 °F 30 in WNW 10 mph 20 mph 91 % 0 in
04:22 39.7 °F 37.4 °F 30 in WNW 9 mph 22 mph 91 % 0 in
04:32 39.7 °F 37.4 °F 30 in NW 10 mph 20 mph 91 % 0 in
04:37 39.7 °F 37 °F 30 in NNW 6 mph 20 mph 90 % 0 in
04:42 39.7 °F 37 °F 30 in NW 6 mph 20 mph 90 % 0 in
04:47 39.9 °F 36.9 °F 30 in NW 6 mph 20 mph 89 % 0 in
04:52 39.9 °F 36.9 °F 30 in NNW 4 mph 20 mph 89 % 0 in
04:57 39.9 °F 36.9 °F 30 in NW 7 mph 21 mph 89 % 0 in
05:02 39.9 °F 36.9 °F 30 in East 8 mph 22 mph 89 % 0 in
05:07 40.1 °F 37 °F 30 in NNW 14 mph 22 mph 89 % 0 in
05:12 40.1 °F 37 °F 30 in NW 4 mph 22 mph 89 % 0 in
05:17 40.1 °F 37 °F 30 in NNW 12 mph 21 mph 89 % 0 in
05:22 40.1 °F 37 °F 30 in NW 9 mph 17 mph 89 % 0 in
05:27 40.3 °F 37 °F 30 in NW 7 mph 18 mph 88 % 0 in
05:32 40.3 °F 37 °F 30 in WNW 12 mph 18 mph 88 % 0 in
05:37 40.3 °F 37.2 °F 30 in NW 4 mph 16 mph 89 % 0 in
05:42 40.3 °F 37.6 °F 30 in North 4 mph 14 mph 90 % 0 in
05:47 39.9 °F 37.2 °F 30 in WNW 11 mph 16 mph 90 % 0 in
05:52 40.1 °F 37.4 °F 30 in North 13 mph 16 mph 90 % 0 in
05:57 39.9 °F 37.2 °F 30 in NW 11 mph 18 mph 90 % 0 in
06:02 40.1 °F 37.4 °F 30 in NW 9 mph 18 mph 90 % 0 in
06:12 40.3 °F 37.6 °F 30 in NNW 4 mph 17 mph 90 % 0 in
06:17 40.3 °F 37.6 °F 30 in NNW 5 mph 17 mph 90 % 0 in
06:22 40.3 °F 37.6 °F 30 in NNW 5 mph 17 mph 90 % 0 in
06:27 40.3 °F 37.6 °F 30 in NNW 3 mph 15 mph 90 % 0 in
06:32 40.3 °F 37.9 °F 30.1 in NW 5 mph 16 mph 91 % 0 in
06:37 40.3 °F 37.9 °F 30.1 in WNW 10 mph 16 mph 91 % 0 in
06:42 40.5 °F 38.1 °F 30.1 in NW 9 mph 16 mph 91 % 0 in
06:47 40.5 °F 38.1 °F 30.1 in NW 4 mph 16 mph 91 % 0 in
06:52 40.5 °F 38.1 °F 30.1 in NW 2 mph 16 mph 91 % 0 in
06:57 40.5 °F 38.1 °F 30.1 in NW 5 mph 16 mph 91 % 0 in
07:02 40.5 °F 38.1 °F 30.1 in NW 7 mph 12 mph 91 % 0 in
07:07 40.6 °F 38.3 °F 30.1 in North 6 mph 12 mph 91 % 0 in
07:12 40.8 °F 38.1 °F 30.1 in NW 10 mph 13 mph 90 % 0 in
07:17 40.8 °F 38.1 °F 30.1 in WNW 7 mph 13 mph 90 % 0 in
07:22 40.8 °F 38.1 °F 30.1 in NNW 5 mph 11 mph 90 % 0 in
07:27 40.8 °F 38.1 °F 30.1 in NW 2 mph 11 mph 90 % 0 in
07:32 40.8 °F 38.1 °F 30.1 in WNW 4 mph 11 mph 90 % 0 in
07:37 41 °F 38.3 °F 30.1 in WSW 3 mph 13 mph 90 % 0 in
07:42 41 °F 38.3 °F 30.1 in NW 3 mph 13 mph 90 % 0 in
07:47 41.2 °F 38.5 °F 30.1 in WNW 8 mph 13 mph 90 % 0 in
07:52 41 °F 38.3 °F 30.1 in NNW 4 mph 13 mph 90 % 0 in
07:57 41.2 °F 38.5 °F 30.1 in WNW 6 mph 13 mph 90 % 0 in
08:02 41 °F 38.3 °F 30.1 in NNW 4 mph 11 mph 90 % 0 in
08:12 41.2 °F 38.1 °F 30.1 in NW 6 mph 15 mph 89 % 0 in
08:17 41.2 °F 38.1 °F 30.1 in WNW 5 mph 15 mph 89 % 0 in
08:22 41.2 °F 38.1 °F 30.1 in WNW 4 mph 15 mph 89 % 0 in
08:27 41.2 °F 37.9 °F 30.1 in NNW 6 mph 13 mph 88 % 0 in
08:32 41.2 °F 37.9 °F 30.1 in WNW 3 mph 13 mph 88 % 0 in
08:37 41.2 °F 37.9 °F 30.1 in NW 2 mph 13 mph 88 % 0 in
08:42 41.2 °F 37.9 °F 30.1 in NW 5 mph 10 mph 88 % 0 in
08:47 41.2 °F 37.9 °F 30.1 in NNW 4 mph 11 mph 88 % 0 in
08:52 41.2 °F 37.9 °F 30.1 in West 5 mph 11 mph 88 % 0 in
08:57 41.2 °F 37.9 °F 30.1 in West 3 mph 10 mph 88 % 0 in
09:02 41.2 °F 38.1 °F 30.1 in NW 3 mph 8 mph 89 % 0 in
09:12 41.2 °F 38.1 °F 30.1 in NW 5 mph 9 mph 89 % 0 in
09:17 41.2 °F 38.1 °F 30.1 in NW 6 mph 10 mph 89 % 0 in
09:22 41.2 °F 38.1 °F 30.1 in WNW 7 mph 10 mph 89 % 0 in
09:32 40.8 °F 37.6 °F 30.1 in WNW 7 mph 16 mph 88 % 0 in
09:37 40.8 °F 37.8 °F 30.1 in WNW 4 mph 16 mph 89 % 0 in
09:42 40.8 °F 37.8 °F 30.1 in WNW 3 mph 16 mph 89 % 0 in
09:52 40.6 °F 37.6 °F 30.1 in WNW 7 mph 11 mph 89 % 0 in
09:57 40.6 °F 37.6 °F 30.1 in NNW 8 mph 12 mph 89 % 0 in
10:02 40.6 °F 37.6 °F 30.1 in West 5 mph 12 mph 89 % 0 in
10:07 40.6 °F 37.6 °F 30.1 in WNW 3 mph 13 mph 89 % 0 in
10:12 40.6 °F 37.6 °F 30.1 in WNW 6 mph 13 mph 89 % 0 in
10:17 40.6 °F 37.6 °F 30.1 in NW 8 mph 11 mph 89 % 0 in
10:22 40.6 °F 37.6 °F 30.1 in WNW 7 mph 11 mph 89 % 0 in
10:27 40.6 °F 37.6 °F 30.1 in NNW 4 mph 11 mph 89 % 0 in
10:32 40.6 °F 37.6 °F 30.1 in NW 3 mph 11 mph 89 % 0 in
10:37 40.5 °F 37.8 °F 30.1 in NW 2 mph 11 mph 90 % 0 in
10:42 40.6 °F 37.9 °F 30.1 in NNW 2 mph 11 mph 90 % 0 in
10:47 40.6 °F 37.6 °F 30.1 in WNW 4 mph 11 mph 89 % 0 in
10:52 40.6 °F 37.6 °F 30.1 in NNW 2 mph 14 mph 89 % 0 in
10:57 40.8 °F 38.1 °F 30.1 in West 7 mph 14 mph 90 % 0 in
11:02 40.8 °F 37.8 °F 30.1 in NW 4 mph 14 mph 89 % 0 in
11:07 40.8 °F 37.8 °F 30.1 in NNW 3 mph 10 mph 89 % 0 in
11:12 41 °F 37.9 °F 30.1 in NW 3 mph 13 mph 89 % 0 in
11:17 41.2 °F 38.5 °F 30.1 in NNW 4 mph 13 mph 90 % 0 in
11:22 41.2 °F 38.1 °F 30.1 in WNW 8 mph 13 mph 89 % 0 in
11:27 41.2 °F 38.1 °F 30.1 in NW 6 mph 10 mph 89 % 0 in
11:32 41.4 °F 38.1 °F 30.1 in NNW 2 mph 10 mph 88 % 0 in
11:37 41.5 °F 38.5 °F 30.1 in West 5 mph 9 mph 89 % 0 in
11:42 41.5 °F 38.3 °F 30.1 in WNW 3 mph 9 mph 88 % 0 in
11:47 41.5 °F 38.3 °F 30.1 in NW 3 mph 9 mph 88 % 0 in
11:52 41.7 °F 38.5 °F 30.1 in NW 3 mph 9 mph 88 % 0 in
11:57 41.7 °F 38.5 °F 30.1 in NW 6 mph 9 mph 88 % 0 in
12:02 42.1 °F 38.8 °F 30.1 in NNW 9 mph 10 mph 88 % 0 in
12:07 42.3 °F 39 °F 30.1 in WSW 4 mph 10 mph 88 % 0 in
12:12 42.3 °F 38.7 °F 30.1 in NW 5 mph 10 mph 87 % 0 in
12:17 42.3 °F 38.7 °F 30.1 in NW 6 mph 12 mph 87 % 0 in
12:22 42.3 °F 38.7 °F 30.1 in WNW 7 mph 12 mph 87 % 0 in
12:27 42.4 °F 38.8 °F 30.1 in NW 6 mph 11 mph 87 % 0 in
12:32 42.4 °F 38.8 °F 30.1 in WNW 6 mph 11 mph 87 % 0 in
12:42 42.4 °F 38.8 °F 30.1 in WNW 5 mph 11 mph 87 % 0 in
12:47 42.4 °F 38.5 °F 30.1 in WNW 4 mph 11 mph 86 % 0 in
12:52 42.4 °F 38.8 °F 30.1 in WNW 4 mph 11 mph 87 % 0 in
12:57 42.4 °F 38.8 °F 30.1 in NW 3 mph 9 mph 87 % 0 in
13:02 42.6 °F 38.7 °F 30.1 in NNW 3 mph 9 mph 86 % 0 in
13:12 42.8 °F 38.8 °F 30.1 in NNW 1 mph 9 mph 86 % 0 in
13:17 42.8 °F 38.7 °F 30.1 in WNW 1 mph 9 mph 85 % 0 in
13:22 43 °F 38.8 °F 30.1 in WNW 2 mph 9 mph 85 % 0 in
13:27 43.2 °F 38.7 °F 30.1 in NNW 3 mph 9 mph 84 % 0 in
13:32 43.2 °F 39 °F 30.1 in WNW 5 mph 9 mph 85 % 0 in
13:37 43.3 °F 38.8 °F 30.1 in West 5 mph 9 mph 84 % 0 in
13:42 43.3 °F 38.8 °F 30.1 in NW 3 mph 9 mph 84 % 0 in
13:47 43.5 °F 39 °F 30.1 in North 1 mph 9 mph 84 % 0 in
13:52 43.5 °F 39 °F 30.1 in NW 4 mph 7 mph 84 % 0 in
13:57 43.5 °F 38.7 °F 30.1 in North 3 mph 7 mph 83 % 0 in
14:02 43.5 °F 38.7 °F 30.1 in Calm   7 mph 83 % 0 in
14:07 43.7 °F 39.2 °F 30.1 in Calm   6 mph 84 % 0 in
14:12 43.7 °F 38.8 °F 30.1 in NW 1 mph 6 mph 83 % 0 in
14:17 43.7 °F 38.8 °F 30.1 in NW 1 mph 8 mph 83 % 0 in
14:22 43.9 °F 39 °F 30.1 in WNW 1 mph 8 mph 83 % 0 in
14:32 43.9 °F 38.7 °F 30.1 in West 2 mph 6 mph 82 % 0 in
14:37 43.9 °F 38.7 °F 30.1 in NW 2 mph 6 mph 82 % 0 in
14:42 43.9 °F 38.5 °F 30.1 in Calm   6 mph 81 % 0 in
14:47 43.9 °F 38.1 °F 30.1 in WNW 1 mph 5 mph 80 % 0 in
14:52 44.1 °F 38.3 °F 30.1 in WNW 4 mph 6 mph 80 % 0 in
14:57 44.1 °F 37.9 °F 30.1 in Calm   6 mph 79 % 0 in
15:02 44.4 °F 38.3 °F 30.1 in NNW 3 mph 6 mph 79 % 0 in
15:07 44.4 °F 38.3 °F 30.1 in WNW 1 mph 5 mph 79 % 0 in
15:12 44.4 °F 38.3 °F 30.1 in NW 1 mph 3 mph 79 % 0 in
15:17 44.4 °F 38.3 °F 30.1 in WNW 1 mph 6 mph 79 % 0 in
15:22 44.4 °F 38.3 °F 30.1 in WNW 1 mph 6 mph 79 % 0 in
15:27 44.6 °F 38.5 °F 30.1 in North 2 mph 6 mph 79 % 0 in
15:37 45 °F 38.8 °F 30.1 in West 1 mph 4 mph 79 % 0 in
15:42 45 °F 38.5 °F 30.1 in Calm   3 mph 78 % 0 in
15:47 45.1 °F 38.7 °F 30.1 in Calm   3 mph 78 % 0 in
15:57 45 °F 38.5 °F 30.1 in Calm   4 mph 78 % 0 in
16:02 45 °F 38.5 °F 30.1 in Calm   4 mph 78 % 0 in
16:07 45.1 °F 39 °F 30.1 in WNW 1 mph 3 mph 79 % 0 in
16:12 45 °F 38.5 °F 30.1 in WSW 1 mph 3 mph 78 % 0 in
16:17 45 °F 38.8 °F 30.1 in Calm   3 mph 79 % 0 in
16:22 45 °F 38.8 °F 30.1 in Calm   2 mph 79 % 0 in
16:32 45.5 °F 39.4 °F 30.1 in Calm   1 mph 79 % 0 in
16:37 45.9 °F 39.7 °F 30.1 in Calm   1 mph 79 % 0 in
16:42 46 °F 39.2 °F 30.1 in South 1 mph 1 mph 77 % 0 in
16:52 46.2 °F 39.7 °F 30.1 in Calm   2 mph 78 % 0 in
16:57 46.4 °F 40.3 °F 30.1 in Calm   2 mph 79 % 0 in
17:02 46 °F 38.8 °F 30.1 in WNW 4 mph 4 mph 76 % 0 in
17:07 45.7 °F 39.2 °F 30.1 in WNW 1 mph 6 mph 78 % 0 in
17:12 45.3 °F 38.8 °F 30.1 in West 2 mph 6 mph 78 % 0 in
17:17 45.1 °F 38.3 °F 30.1 in West 1 mph 6 mph 77 % 0 in
17:22 45 °F 38.5 °F 30.1 in WNW 2 mph 6 mph 78 % 0 in
17:27 45 °F 38.5 °F 30.1 in WNW 2 mph 6 mph 78 % 0 in
17:32 44.8 °F 38.3 °F 30.1 in Calm   3 mph 78 % 0 in
17:37 44.8 °F 38.7 °F 30.2 in West 1 mph 3 mph 79 % 0 in
17:42 44.6 °F 38.1 °F 30.2 in West 2 mph 4 mph 78 % 0 in
17:47 44.4 °F 37.9 °F 30.2 in West 3 mph 4 mph 78 % 0 in
17:52 44.2 °F 37.8 °F 30.2 in WNW 3 mph 4 mph 78 % 0 in
17:57 44.1 °F 37.6 °F 30.2 in WNW 2 mph 5 mph 78 % 0 in
18:02 44.1 °F 37.6 °F 30.2 in West 1 mph 5 mph 78 % 0 in
18:07 43.7 °F 37.2 °F 30.2 in WNW 1 mph 5 mph 78 % 0 in
18:12 43.5 °F 37.4 °F 30.2 in West 2 mph 4 mph 79 % 0 in
18:17 43.5 °F 37.4 °F 30.2 in West 1 mph 4 mph 79 % 0 in
18:22 43.3 °F 37.6 °F 30.2 in West 2 mph 4 mph 80 % 0 in
18:27 43.2 °F 37.8 °F 30.2 in WSW 2 mph 3 mph 81 % 0 in
18:32 42.8 °F 37.8 °F 30.2 in West 2 mph 4 mph 82 % 0 in
18:37 42.6 °F 37.8 °F 30.2 in West 1 mph 4 mph 83 % 0 in
18:42 42.4 °F 37.6 °F 30.2 in West 1 mph 4 mph 83 % 0 in
18:47 42.3 °F 37.8 °F 30.2 in West 1 mph 4 mph 84 % 0 in
18:52 42.3 °F 37.8 °F 30.2 in Calm   4 mph 84 % 0 in
18:57 42.1 °F 37.6 °F 30.2 in WSW 1 mph 2 mph 84 % 0 in
19:02 42.3 °F 37.4 °F 30.2 in WSW 1 mph 2 mph 83 % 0 in
19:07 42.3 °F 37.4 °F 30.2 in West 1 mph 1 mph 83 % 0 in
19:12 42.3 °F 37.4 °F 30.2 in Calm   3 mph 83 % 0 in
19:17 42.1 °F 37.2 °F 30.2 in West 1 mph 3 mph 83 % 0 in
19:22 41.9 °F 37.4 °F 30.2 in Calm   2 mph 84 % 0 in
19:27 41.7 °F 37.2 °F 30.2 in Calm   2 mph 84 % 0 in
19:32 41.5 °F 37 °F 30.2 in Calm   2 mph 84 % 0 in
19:37 41.5 °F 37.4 °F 30.2 in Calm   1 mph 85 % 0 in
19:42 41.5 °F 37.4 °F 30.2 in Calm     85 % 0 in
19:47 41.4 °F 37.2 °F 30.2 in Calm     85 % 0 in
19:52 41.2 °F 37.4 °F 30.2 in Calm     86 % 0 in
19:57 40.8 °F 37 °F 30.2 in Calm     86 % 0 in
20:02 40.6 °F 37 °F 30.2 in Calm     87 % 0 in
20:07 40.5 °F 37.2 °F 30.2 in Calm     88 % 0 in
20:12 40.3 °F 37 °F 30.2 in Calm     88 % 0 in
20:17 40.1 °F 36.9 °F 30.2 in Calm     88 % 0 in
20:22 39.9 °F 36.9 °F 30.2 in Calm     89 % 0 in
20:27 39.7 °F 36.7 °F 30.2 in Calm     89 % 0 in
20:32 39.7 °F 36.7 °F 30.2 in Calm     89 % 0 in
20:42 39.6 °F 36.9 °F 30.1 in Calm     90 % 0 in
20:47 39.6 °F 36.9 °F 30.1 in Calm   2 mph 90 % 0 in
20:52 39.6 °F 36.9 °F 30.1 in Calm   2 mph 90 % 0 in
20:57 39.7 °F 37 °F 30.1 in Calm   1 mph 90 % 0 in
21:02 39.7 °F 37 °F 30.1 in Calm   1 mph 90 % 0 in
21:07 39.7 °F 36.7 °F 30.1 in Calm   2 mph 89 % 0 in
21:12 39.6 °F 36.9 °F 30.1 in Calm   2 mph 90 % 0 in
21:17 39.6 °F 36.9 °F 30.1 in Calm   2 mph 90 % 0 in
21:22 39.4 °F 36.7 °F 30.1 in Calm   1 mph 90 % 0 in
21:27 39.4 °F 36.7 °F 30.1 in Calm   1 mph 90 % 0 in
21:32 39.2 °F 36.9 °F 30.1 in Calm   1 mph 91 % 0 in
21:37 39 °F 36.7 °F 30.1 in Calm   1 mph 91 % 0 in
21:42 39 °F 36.7 °F 30.1 in Calm   1 mph 91 % 0 in
21:47 39 °F 36.7 °F 30.1 in SSW 1 mph 1 mph 91 % 0 in
21:52 39 °F 36.7 °F 30.1 in Calm   1 mph 91 % 0 in
21:57 38.8 °F 36.5 °F 30.1 in SW 1 mph 1 mph 91 % 0 in
22:02 39 °F 36.7 °F 30.1 in SSW 1 mph 2 mph 91 % 0 in
22:12 39.4 °F 36.7 °F 30.1 in Calm   2 mph 90 % 0 in
22:17 39.4 °F 36.7 °F 30.1 in SSW 1 mph 2 mph 90 % 0 in
22:22 39.4 °F 36.7 °F 30.1 in Calm   2 mph 90 % 0 in
22:27 39.4 °F 36.7 °F 30.1 in Calm   2 mph 90 % 0 in
22:32 39.6 °F 36.9 °F 30.1 in SSW 1 mph 2 mph 90 % 0 in
22:37 39.4 °F 36.7 °F 30.1 in South 1 mph 2 mph 90 % 0 in
22:42 39.4 °F 36.7 °F 30.1 in SSW 1 mph 2 mph 90 % 0 in
22:47 39.4 °F 37 °F 30.1 in SW 1 mph 2 mph 91 % 0 in
22:52 39.4 °F 37 °F 30.1 in SSW 1 mph 3 mph 91 % 0 in
22:57 39.4 °F 37 °F 30.1 in South 1 mph 3 mph 91 % 0 in
23:02 39.4 °F 37 °F 30.1 in SSW 1 mph 3 mph 91 % 0 in
23:07 39.4 °F 37 °F 30.1 in Calm   2 mph 91 % 0 in
23:12 39.2 °F 37 °F 30.1 in Calm   2 mph 92 % 0 in
23:17 39 °F 36.9 °F 30.1 in Calm   2 mph 92 % 0 in
23:22 39.2 °F 37 °F 30.1 in South 1 mph 1 mph 92 % 0 in
23:27 39.4 °F 37 °F 30.1 in Calm   1 mph 91 % 0 in
23:32 39.2 °F 36.9 °F 30.1 in Calm   1 mph 91 % 0 in
23:37 39.2 °F 37 °F 30.1 in Calm   1 mph 92 % 0 in
23:42 39.2 °F 37 °F 30.1 in SSW 1 mph 1 mph 92 % 0 in
23:47 39.4 °F 37 °F 30.1 in Calm   3 mph 91 % 0 in
23:52 39.6 °F 37.2 °F 30.1 in South 2 mph 3 mph 91 % 0 in
23:57 39.6 °F 36.9 °F 30.1 in Calm   3 mph 90 % 0 in
Meteo18
Compliments of Weather Underground - 4 mb

Script developed by  Jim McMurry - jmcmurry@mwt.net Adapted for the template by  Wim van der Kuil - Leuven-Template.eu

You find our weather info also at:

European Weather Network

Weather Underground

Equipment we use:

Weather-station
Davis Vue

Weather-program
Meteohub

Weather-server
Raspberry PI 2 B+

Provider
1 and 1

Davis Vue

Meteohub

Raspberry PI 2 B+

1 and 1